createdAt,value
2023-02-12T00:00:07.878Z,3.17
2023-02-12T00:02:45.916Z,3.04
2023-02-12T00:05:19.373Z,3.05
2023-02-12T00:07:50.343Z,3.21
2023-02-12T00:10:21.304Z,3.14
2023-02-12T00:12:52.704Z,3.14
2023-02-12T00:15:26.252Z,3.20
2023-02-12T00:17:57.056Z,3.27
2023-02-12T00:20:28.277Z,3.14
2023-02-12T00:22:58.619Z,3.22
2023-02-12T00:25:29.767Z,3.14
2023-02-12T00:28:00.412Z,3.29
2023-02-12T00:30:37.488Z,3.21
2023-02-12T00:33:08.063Z,3.31
2023-02-12T00:35:39.061Z,3.27
2023-02-12T00:38:09.850Z,3.27
2023-02-12T00:40:40.926Z,3.21
2023-02-12T00:43:12.227Z,3.20
2023-02-12T00:45:45.864Z,3.15
2023-02-12T00:48:17.064Z,3.18
2023-02-12T00:50:48.955Z,3.09
2023-02-12T00:53:19.877Z,3.03
2023-02-12T00:55:51.225Z,3.10
2023-02-12T00:58:22.993Z,3.09
2023-02-12T01:00:57.820Z,3.19
2023-02-12T01:03:28.793Z,3.17
2023-02-12T01:05:59.502Z,3.18
2023-02-12T01:08:30.492Z,3.16
2023-02-12T01:11:03.833Z,3.07
2023-02-12T01:13:35.683Z,2.88
2023-02-12T01:16:13.030Z,2.91
2023-02-12T01:18:43.927Z,2.97
2023-02-12T01:21:16.208Z,2.99
2023-02-12T01:23:48.623Z,3.09
2023-02-12T01:26:20.704Z,3.12
2023-02-12T01:28:55.968Z,2.94
2023-02-12T01:31:32.166Z,2.97
2023-02-12T01:34:03.958Z,3.04
2023-02-12T01:36:37.326Z,3.04
2023-02-12T01:39:09.078Z,2.96
2023-02-12T01:41:44.126Z,2.95
2023-02-12T01:44:19.650Z,2.98
2023-02-12T01:46:58.427Z,3.03
2023-02-12T01:49:35.473Z,3.04
2023-02-12T01:52:11.706Z,3.00
2023-02-12T01:54:43.220Z,3.11
2023-02-12T01:57:16.264Z,3.11
2023-02-12T01:59:49.272Z,3.11
2023-02-12T02:02:23.578Z,3.23
2023-02-12T02:04:59.530Z,3.21
2023-02-12T02:07:31.876Z,3.14
2023-02-12T02:10:03.693Z,3.22
2023-02-12T02:12:47.158Z,3.24
2023-02-12T02:15:17.869Z,3.18
2023-02-12T02:17:56.646Z,3.18
2023-02-12T02:20:59.142Z,3.10
2023-02-12T02:23:47.361Z,3.14
2023-02-12T02:26:46.256Z,3.07
2023-02-12T02:29:43.422Z,2.96
2023-02-12T02:32:21.851Z,2.92
2023-02-12T02:34:58.406Z,2.93
2023-02-12T02:37:36.063Z,2.97
2023-02-12T02:40:15.569Z,3.05
2023-02-12T02:42:52.348Z,2.98
2023-02-12T02:45:29.974Z,2.93
2023-02-12T02:48:06.288Z,2.99
2023-02-12T02:50:41.910Z,3.01
2023-02-12T02:53:17.168Z,2.88
2023-02-12T02:55:52.998Z,2.83
2023-02-12T02:58:29.886Z,2.85
2023-02-12T03:01:06.812Z,2.78
2023-02-12T03:03:46.641Z,2.74
2023-02-12T03:06:24.867Z,2.63
2023-02-12T03:09:03.516Z,2.64
2023-02-12T03:11:37.103Z,2.69
2023-02-12T03:14:12.402Z,2.65
2023-02-12T03:16:51.978Z,2.68
2023-02-12T03:19:28.656Z,2.54
2023-02-12T03:22:04.002Z,2.48
2023-02-12T03:24:40.314Z,2.54
2023-02-12T03:27:16.887Z,2.48
2023-02-12T03:29:51.081Z,2.37
2023-02-12T03:32:33.272Z,2.34
2023-02-12T03:35:16.521Z,2.36
2023-02-12T03:37:55.062Z,2.35
2023-02-12T03:40:32.412Z,2.35
2023-02-12T03:43:08.096Z,2.40
2023-02-12T03:45:45.978Z,2.29
2023-02-12T03:48:26.921Z,2.19
2023-02-12T03:51:05.988Z,2.26
2023-02-12T03:53:36.851Z,2.23
2023-02-12T03:56:13.846Z,2.24
2023-02-12T03:58:46.686Z,2.28
2023-02-12T04:01:18.625Z,2.34
2023-02-12T04:03:49.368Z,2.20
2023-02-12T04:06:29.412Z,2.33
2023-02-12T04:09:05.199Z,2.28
2023-02-12T04:11:45.814Z,2.31
2023-02-12T04:14:30.317Z,2.27
2023-02-12T04:17:07.648Z,2.29
2023-02-12T04:20:02.275Z,2.28
2023-02-12T04:22:43.094Z,2.29
2023-02-12T04:25:24.594Z,2.23
2023-02-12T04:28:02.535Z,2.17
2023-02-12T04:30:38.923Z,2.08
2023-02-12T04:33:13.432Z,2.12
2023-02-12T04:35:49.210Z,2.16
2023-02-12T04:38:25.906Z,2.16
2023-02-12T04:40:57.006Z,2.10
2023-02-12T04:43:34.733Z,2.05
2023-02-12T04:46:07.941Z,1.97
2023-02-12T04:48:40.139Z,1.92
2023-02-12T04:51:10.705Z,1.86
2023-02-12T04:53:44.219Z,1.78
2023-02-12T04:56:15.450Z,1.71
2023-02-12T04:58:46.383Z,1.74
2023-02-12T05:01:17.087Z,1.69
2023-02-12T05:03:47.848Z,1.73
2023-02-12T05:06:18.405Z,1.72
2023-02-12T05:08:51.913Z,1.88
2023-02-12T05:11:22.081Z,1.90
2023-02-12T05:13:53.585Z,1.83
2023-02-12T05:16:25.317Z,1.89
2023-02-12T05:18:55.670Z,1.78
2023-02-12T05:21:26.798Z,1.66
2023-02-12T05:24:00.092Z,1.70
2023-02-12T05:26:30.402Z,1.71
2023-02-12T05:29:01.017Z,1.64
2023-02-12T05:31:32.120Z,1.65
2023-02-12T05:34:02.851Z,1.69
2023-02-12T05:36:33.218Z,1.65
2023-02-12T05:39:07.849Z,1.52
2023-02-12T05:41:38.536Z,1.52
2023-02-12T05:44:11.833Z,1.56
2023-02-12T05:46:42.743Z,1.50
2023-02-12T05:49:14.826Z,1.62
2023-02-12T05:51:45.699Z,1.53
2023-02-12T05:54:19.158Z,1.58
2023-02-12T05:56:51.715Z,1.47
2023-02-12T05:59:26.075Z,1.46
2023-02-12T06:01:57.260Z,1.40
2023-02-12T06:04:29.940Z,1.45
2023-02-12T06:07:00.332Z,1.41
2023-02-12T06:09:34.605Z,1.37
2023-02-12T06:12:05.429Z,1.37
2023-02-12T06:14:36.994Z,1.37
2023-02-12T06:17:07.595Z,1.21
2023-02-12T06:19:38.536Z,1.31
2023-02-12T06:22:09.798Z,1.23
2023-02-12T06:24:43.310Z,1.29
2023-02-12T06:27:13.991Z,1.25
2023-02-12T06:29:44.956Z,1.22
2023-02-12T06:32:15.885Z,1.11
2023-02-12T06:34:46.393Z,1.14
2023-02-12T06:37:16.789Z,1.15
2023-02-12T06:39:50.706Z,1.41
2023-02-12T06:42:21.086Z,1.38
2023-02-12T06:44:53.036Z,1.38
2023-02-12T06:47:23.422Z,1.45
2023-02-12T06:49:53.689Z,1.49
2023-02-12T06:52:24.534Z,1.44
2023-02-12T06:54:58.265Z,1.48
2023-02-12T06:57:28.507Z,1.47
2023-02-12T06:59:59.158Z,1.56
2023-02-12T07:02:29.851Z,1.58
2023-02-12T07:05:00.797Z,1.64
2023-02-12T07:07:31.438Z,1.58
2023-02-12T07:10:05.664Z,1.91
2023-02-12T07:12:37.451Z,1.94
2023-02-12T07:15:13.145Z,2.03
2023-02-12T07:17:44.458Z,2.14
2023-02-12T07:20:16.222Z,2.23
2023-02-12T07:22:46.563Z,2.29
2023-02-12T07:25:22.564Z,2.36
2023-02-12T07:27:53.201Z,2.48
2023-02-12T07:30:24.240Z,2.55
2023-02-12T07:32:54.677Z,2.61
2023-02-12T07:35:25.361Z,2.72
2023-02-12T07:37:56.342Z,2.83
2023-02-12T07:40:29.938Z,2.90
2023-02-12T07:43:00.934Z,3.05
2023-02-12T07:45:31.869Z,3.12
2023-02-12T07:48:02.272Z,3.21
2023-02-12T07:50:33.027Z,3.32
2023-02-12T07:53:06.577Z,3.37
2023-02-12T07:55:40.900Z,3.42
2023-02-12T07:58:11.349Z,3.52
2023-02-12T08:00:42.614Z,3.63
2023-02-12T08:03:13.067Z,3.75
2023-02-12T08:05:44.267Z,3.83
2023-02-12T08:08:15.205Z,3.96
2023-02-12T08:10:48.452Z,4.04
2023-02-12T08:13:19.880Z,4.01
2023-02-12T08:15:51.479Z,4.13
2023-02-12T08:18:22.669Z,4.27
2023-02-12T08:20:53.505Z,4.37
2023-02-12T08:23:24.383Z,4.39
2023-02-12T08:26:01.559Z,4.59
2023-02-12T08:28:33.021Z,4.50
2023-02-12T08:31:05.033Z,4.43
2023-02-12T08:33:36.416Z,4.58
2023-02-12T08:36:10.078Z,4.77
2023-02-12T08:38:41.986Z,4.84
2023-02-12T08:41:19.274Z,4.76
2023-02-12T08:43:53.292Z,4.83
2023-02-12T08:46:27.776Z,4.98
2023-02-12T08:49:01.037Z,5.06
2023-02-12T08:51:34.496Z,5.09
2023-02-12T08:54:07.794Z,5.10
2023-02-12T08:56:42.506Z,5.20
2023-02-12T08:59:16.944Z,5.35
2023-02-12T09:01:48.057Z,5.58
2023-02-12T09:04:21.999Z,5.50
2023-02-12T09:06:53.720Z,5.72
2023-02-12T09:09:26.911Z,5.72
2023-02-12T09:12:00.419Z,5.78
2023-02-12T09:14:31.439Z,5.73
2023-02-12T09:17:04.128Z,5.93
2023-02-12T09:19:35.147Z,6.05
2023-02-12T09:22:06.027Z,6.13
2023-02-12T09:24:39.024Z,6.31
2023-02-12T09:27:13.819Z,6.39
2023-02-12T09:29:46.251Z,6.33
2023-02-12T09:32:16.881Z,6.30
2023-02-12T09:34:47.772Z,6.49
2023-02-12T09:37:18.427Z,6.54
2023-02-12T09:39:51.156Z,6.48
2023-02-12T09:42:54.996Z,6.75
2023-02-12T09:45:30.658Z,6.59
2023-02-12T09:48:08.410Z,6.80
2023-02-12T09:50:48.960Z,6.93
2023-02-12T09:53:22.654Z,6.98
2023-02-12T09:55:54.166Z,7.03
2023-02-12T09:58:37.113Z,7.06
2023-02-12T10:01:18.205Z,7.07
2023-02-12T10:03:50.910Z,7.29
2023-02-12T10:06:27.869Z,7.32
2023-02-12T10:09:10.030Z,7.43
2023-02-12T10:12:03.621Z,7.54
2023-02-12T10:15:13.227Z,7.44
2023-02-12T10:17:49.004Z,7.45
2023-02-12T10:20:46.997Z,7.65
2023-02-12T10:23:32.215Z,7.83
2023-02-12T10:26:08.107Z,7.79
2023-02-12T10:28:45.715Z,7.66
2023-02-12T10:31:30.051Z,7.90
2023-02-12T10:34:02.494Z,8.12
2023-02-12T10:36:44.084Z,8.23
2023-02-12T10:39:22.293Z,8.43
2023-02-12T10:42:00.031Z,8.23
2023-02-12T10:44:37.454Z,8.24
2023-02-12T10:47:21.248Z,8.42
2023-02-12T10:50:02.128Z,8.01
2023-02-12T10:52:45.974Z,8.26
2023-02-12T10:55:33.453Z,8.36
2023-02-12T10:58:10.861Z,8.53
2023-02-12T11:00:46.411Z,8.59
2023-02-12T11:03:35.507Z,8.58
2023-02-12T11:06:22.401Z,8.55
2023-02-12T11:08:54.541Z,8.38
2023-02-12T11:11:37.285Z,8.42
2023-02-12T11:14:12.493Z,8.55
2023-02-12T11:16:49.039Z,8.55
2023-02-12T11:19:38.239Z,8.83
2023-02-12T11:25:20.232Z,8.35
2023-02-12T11:28:47.682Z,8.59
2023-02-12T11:31:43.891Z,8.70
2023-02-12T11:34:44.329Z,9.16
2023-02-12T11:37:34.645Z,9.27
2023-02-12T11:40:37.645Z,9.16
2023-02-12T11:43:26.308Z,8.59
2023-02-12T11:46:15.078Z,8.46
2023-02-12T11:49:16.328Z,8.52
2023-02-12T11:52:07.209Z,8.89
2023-02-12T11:54:59.270Z,8.86
2023-02-12T11:57:54.317Z,8.76
2023-02-12T12:00:49.195Z,8.94
2023-02-12T12:03:28.313Z,9.13
2023-02-12T12:06:05.533Z,9.18
2023-02-12T12:08:42.953Z,9.40
2023-02-12T12:11:25.420Z,9.37
2023-02-12T12:14:04.923Z,9.21
2023-02-12T12:16:54.281Z,9.15
2023-02-12T12:19:43.920Z,9.18
2023-02-12T12:22:20.937Z,9.04
2023-02-12T12:25:10.023Z,8.85
2023-02-12T12:28:00.390Z,8.93
2023-02-12T12:30:44.016Z,9.03
2023-02-12T12:33:22.924Z,9.45
2023-02-12T12:36:08.923Z,9.52
2023-02-12T12:38:53.292Z,9.32
2023-02-12T12:41:31.197Z,9.37
2023-02-12T12:44:22.186Z,9.40
2023-02-12T12:47:03.582Z,9.03
2023-02-12T12:49:46.712Z,8.97
2023-02-12T12:52:57.654Z,8.93
2023-02-12T12:55:58.018Z,8.50
2023-02-12T12:58:44.962Z,8.54
2023-02-12T13:01:48.379Z,8.25
2023-02-12T13:04:47.298Z,8.11
2023-02-12T13:07:33.158Z,8.04
2023-02-12T13:10:39.967Z,8.22
2023-02-12T13:14:08.031Z,8.18
2023-02-12T13:17:08.239Z,8.18
2023-02-12T13:20:14.188Z,8.21
2023-02-12T13:23:23.700Z,8.11
2023-02-12T13:26:14.087Z,8.03
2023-02-12T13:29:23.242Z,7.79
2023-02-12T13:32:13.633Z,7.66
2023-02-12T13:35:11.381Z,7.56
2023-02-12T13:37:58.239Z,7.45
2023-02-12T13:40:59.701Z,7.68
2023-02-12T13:44:04.841Z,7.78
2023-02-12T13:46:49.457Z,7.83
2023-02-12T13:49:56.510Z,7.96
2023-02-12T13:52:42.994Z,8.08
2023-02-12T13:55:32.577Z,8.24
2023-02-12T13:58:38.689Z,8.53
2023-02-12T14:01:21.596Z,8.75
2023-02-12T14:04:02.905Z,8.91
2023-02-12T14:06:49.656Z,8.81
2023-02-12T14:09:39.059Z,8.83
2023-02-12T14:12:15.246Z,8.70
2023-02-12T14:15:05.823Z,8.56
2023-02-12T14:25:10.287Z,8.30
2023-02-12T14:27:57.906Z,8.31
2023-02-12T14:30:56.652Z,8.17
2023-02-12T14:36:44.876Z,8.16
2023-02-12T14:39:46.035Z,8.11
2023-02-12T14:43:11.555Z,8.08
2023-02-12T14:46:01.635Z,8.11
2023-02-12T14:48:44.926Z,8.10
2023-02-12T14:51:25.419Z,8.06
2023-02-12T14:54:00.306Z,8.02
2023-02-12T14:56:43.584Z,7.95
2023-02-12T14:59:37.976Z,7.88
2023-02-12T15:05:14.408Z,7.71
2023-02-12T15:08:01.116Z,7.58
2023-02-12T15:14:04.421Z,7.25
2023-02-12T15:20:39.659Z,7.04
2023-02-12T15:29:50.964Z,6.84
2023-02-12T15:32:31.238Z,6.71
2023-02-12T15:38:39.438Z,6.48
2023-02-12T15:45:10.513Z,6.25
2023-02-12T15:47:48.279Z,6.11
2023-02-12T15:53:26.253Z,5.94
2023-02-12T15:55:59.265Z,5.81
2023-02-12T15:58:33.317Z,5.62
2023-02-12T16:01:17.928Z,5.59
2023-02-12T16:03:55.609Z,5.61
2023-02-12T16:06:33.493Z,5.56
2023-02-12T16:09:14.101Z,5.54
2023-02-12T16:11:48.608Z,5.48
2023-02-12T16:17:26.507Z,5.34
2023-02-12T16:19:58.993Z,5.31
2023-02-12T16:22:37.499Z,5.25
2023-02-12T16:25:17.620Z,5.21
2023-02-12T16:28:06.786Z,5.18
2023-02-12T16:30:43.223Z,5.13
2023-02-12T16:33:38.875Z,5.10
2023-02-12T16:36:14.400Z,5.01
2023-02-12T16:38:48.051Z,4.96
2023-02-12T16:41:33.026Z,4.89
2023-02-12T16:44:32.618Z,4.85
2023-02-12T16:47:07.532Z,4.79
2023-02-12T16:49:40.812Z,4.74
2023-02-12T16:52:32.021Z,4.68
2023-02-12T16:55:02.520Z,4.66
2023-02-12T16:57:33.557Z,4.70
2023-02-12T17:00:04.847Z,4.71
2023-02-12T17:02:36.813Z,4.60
2023-02-12T17:05:11.189Z,4.55
2023-02-12T17:07:43.046Z,4.55
2023-02-12T17:10:19.824Z,4.51
2023-02-12T17:12:53.179Z,4.57
2023-02-12T17:15:29.507Z,4.51
2023-02-12T17:18:01.876Z,4.50
2023-02-12T17:20:38.066Z,4.47
2023-02-12T17:23:09.954Z,4.47
2023-02-12T17:25:40.803Z,4.42
2023-02-12T17:28:11.666Z,4.37
2023-02-12T17:30:44.064Z,4.32
2023-02-12T17:33:16.531Z,4.27
2023-02-12T17:35:52.056Z,4.27
2023-02-12T17:38:31.487Z,4.34
2023-02-12T17:41:02.692Z,4.31
2023-02-12T17:43:35.642Z,4.29
2023-02-12T17:46:11.493Z,4.31
2023-02-12T17:48:42.004Z,4.33
2023-02-12T17:51:16.582Z,4.25
2023-02-12T17:53:48.145Z,4.22
2023-02-12T17:56:20.484Z,4.23
2023-02-12T17:58:51.449Z,4.23
2023-02-12T18:01:23.695Z,4.23
2023-02-12T18:03:57.476Z,4.23
2023-02-12T18:06:33.275Z,4.16
2023-02-12T18:09:06.161Z,4.10
2023-02-12T18:11:39.515Z,4.11
2023-02-12T18:14:10.428Z,4.13
2023-02-12T18:16:41.962Z,4.16
2023-02-12T18:19:12.905Z,4.14
2023-02-12T18:21:46.250Z,4.11
2023-02-12T18:24:17.208Z,4.12
2023-02-12T18:26:49.076Z,4.11
2023-02-12T18:29:19.757Z,4.02
2023-02-12T18:31:50.534Z,3.92
2023-02-12T18:34:22.992Z,3.88
2023-02-12T18:36:56.529Z,3.81
2023-02-12T18:39:28.005Z,3.74
2023-02-12T18:41:58.416Z,3.67
2023-02-12T18:44:29.327Z,3.61
2023-02-12T18:47:00.320Z,3.51
2023-02-12T18:49:31.444Z,3.41
2023-02-12T18:52:06.189Z,3.33
2023-02-12T18:54:37.446Z,3.22
2023-02-12T18:57:08.397Z,3.08
2023-02-12T18:59:39.046Z,3.01
2023-02-12T19:02:10.501Z,2.93
2023-02-12T19:04:41.269Z,2.74
2023-02-12T19:07:14.822Z,2.64
2023-02-12T19:09:45.540Z,2.55
2023-02-12T19:12:15.972Z,2.54
2023-02-12T19:14:46.743Z,2.44
2023-02-12T19:17:18.117Z,2.41
2023-02-12T19:19:48.815Z,2.33
2023-02-12T19:22:22.623Z,2.26
2023-02-12T19:24:54.913Z,2.14
2023-02-12T19:27:26.724Z,2.09
2023-02-12T19:29:57.218Z,2.01
2023-02-12T19:32:27.756Z,1.93
2023-02-12T19:34:59.334Z,1.95
2023-02-12T19:37:34.010Z,1.91
2023-02-12T19:40:06.283Z,1.78
2023-02-12T19:42:38.040Z,1.75
2023-02-12T19:45:11.679Z,1.66
2023-02-12T19:47:46.707Z,1.65
2023-02-12T19:50:19.199Z,1.63
2023-02-12T19:52:52.596Z,1.61
2023-02-12T19:55:31.909Z,1.57
2023-02-12T19:58:04.359Z,1.50
2023-02-12T20:00:35.060Z,1.46
2023-02-12T20:03:05.858Z,1.38
2023-02-12T20:05:42.700Z,1.37
2023-02-12T20:08:17.453Z,1.25
2023-02-12T20:10:48.967Z,1.19
2023-02-12T20:13:22.910Z,1.21
2023-02-12T20:15:53.454Z,1.08
2023-02-12T20:18:24.423Z,1.03
2023-02-12T20:20:55.178Z,1.04
2023-02-12T20:23:28.869Z,1.01
2023-02-12T20:25:59.997Z,0.90
2023-02-12T20:28:30.864Z,0.70
2023-02-12T20:31:01.822Z,0.73
2023-02-12T20:33:34.008Z,0.70
2023-02-12T20:36:04.925Z,0.63
2023-02-12T20:38:38.668Z,0.53
2023-02-12T20:41:10.973Z,0.54
2023-02-12T20:43:42.444Z,0.50
2023-02-12T20:46:19.446Z,0.50
2023-02-12T20:48:55.020Z,0.37
2023-02-12T20:51:28.881Z,0.30
2023-02-12T20:54:08.329Z,0.22
2023-02-12T20:56:42.925Z,0.22
2023-02-12T20:59:14.785Z,0.23
2023-02-12T21:01:47.198Z,0.19
2023-02-12T21:04:23.780Z,0.14
2023-02-12T21:07:05.940Z,0.03
2023-02-12T21:09:43.075Z,0.17
2023-02-12T21:12:17.623Z,0.18
2023-02-12T21:14:49.029Z,0.26
2023-02-12T21:17:20.991Z,0.29
2023-02-12T21:19:52.181Z,0.11
2023-02-12T21:22:22.723Z,-0.02
2023-02-12T21:24:56.166Z,-0.12
2023-02-12T21:27:26.544Z,-0.14
2023-02-12T21:29:57.116Z,-0.16
2023-02-12T21:32:27.540Z,-0.17
2023-02-12T21:34:58.345Z,-0.14
2023-02-12T21:37:28.705Z,-0.27
2023-02-12T21:40:02.012Z,-0.31
2023-02-12T21:42:32.798Z,-0.38
2023-02-12T21:45:03.846Z,-0.41
2023-02-12T21:47:36.506Z,-0.40
2023-02-12T21:50:07.452Z,-0.46
2023-02-12T21:52:38.270Z,-0.54
2023-02-12T21:55:12.479Z,-0.60
2023-02-12T21:57:43.466Z,-0.75
2023-02-12T22:00:15.342Z,-0.89
2023-02-12T22:02:45.867Z,-0.92
2023-02-12T22:05:16.317Z,-0.96
2023-02-12T22:07:47.126Z,-0.96
2023-02-12T22:10:21.183Z,-1.08
2023-02-12T22:12:51.601Z,-1.12
2023-02-12T22:15:23.392Z,-1.13
2023-02-12T22:17:56.641Z,-1.14
2023-02-12T22:20:27.224Z,-1.18
2023-02-12T22:22:59.872Z,-1.23
2023-02-12T22:25:37.310Z,-1.24
2023-02-12T22:28:11.657Z,-1.28
2023-02-12T22:34:26.675Z,-1.46
2023-02-12T22:36:57.928Z,-1.46
2023-02-12T22:39:30.014Z,-1.53
2023-02-12T22:42:03.972Z,-1.48
2023-02-12T22:44:34.463Z,-1.46
2023-02-12T22:47:04.908Z,-1.48
2023-02-12T22:49:35.324Z,-1.58
2023-02-12T22:52:05.794Z,-1.60
2023-02-12T22:54:36.515Z,-1.61
2023-02-12T22:57:10.131Z,-1.61
2023-02-12T22:59:40.780Z,-1.66
2023-02-12T23:02:11.291Z,-1.68
2023-02-12T23:04:41.933Z,-1.70
2023-02-12T23:07:14.752Z,-1.75
2023-02-12T23:09:45.365Z,-1.79
2023-02-12T23:12:23.795Z,-1.77
2023-02-12T23:14:57.346Z,-1.74
2023-02-12T23:17:28.919Z,-1.72
2023-02-12T23:20:01.510Z,-1.56
2023-02-12T23:22:33.938Z,-1.51
2023-02-12T23:25:05.902Z,-1.51
2023-02-12T23:27:39.616Z,-1.46
2023-02-12T23:30:13.567Z,-1.50
2023-02-12T23:32:48.154Z,-1.51
2023-02-12T23:35:21.039Z,-1.51
2023-02-12T23:37:53.837Z,-1.52
2023-02-12T23:40:28.735Z,-1.47
2023-02-12T23:43:05.798Z,-1.43
2023-02-12T23:45:37.836Z,-1.39
2023-02-12T23:48:14.252Z,-1.30
2023-02-12T23:50:45.621Z,-1.14
2023-02-12T23:53:20.310Z,-1.17
2023-02-12T23:55:54.244Z,-1.11
2023-02-12T23:58:33.858Z,-1.07
